createdAt,value
2022-08-19T00:00:30.991Z,17.09
2022-08-19T00:03:00.576Z,17.09
2022-08-19T00:05:30.064Z,17.10
2022-08-19T00:07:59.734Z,17.08
2022-08-19T00:10:30.797Z,17.12
2022-08-19T00:13:00.310Z,17.08
2022-08-19T00:15:30.005Z,17.14
2022-08-19T00:17:59.497Z,17.19
2022-08-19T00:20:29.460Z,17.20
2022-08-19T00:22:59.000Z,17.28
2022-08-19T00:25:30.520Z,17.23
2022-08-19T00:28:00.918Z,17.16
2022-08-19T00:30:31.049Z,17.16
2022-08-19T00:33:01.029Z,17.17
2022-08-19T00:35:30.757Z,17.17
2022-08-19T00:38:00.347Z,17.19
2022-08-19T00:40:31.713Z,17.18
2022-08-19T00:43:01.474Z,17.12
2022-08-19T00:45:33.177Z,17.13
2022-08-19T00:48:06.955Z,17.18
2022-08-19T00:50:52.325Z,17.18
2022-08-19T00:53:27.373Z,17.20
2022-08-19T00:56:02.183Z,17.19
2022-08-19T00:58:37.213Z,17.17
2022-08-19T01:01:08.615Z,17.24
2022-08-19T01:03:56.653Z,17.24
2022-08-19T01:06:28.404Z,17.24
2022-08-19T01:08:57.899Z,17.21
2022-08-19T01:11:30.096Z,17.26
2022-08-19T01:14:00.424Z,17.25
2022-08-19T01:16:32.250Z,17.27
2022-08-19T01:19:02.622Z,17.29
2022-08-19T01:21:40.104Z,17.31
2022-08-19T01:24:11.233Z,17.32
2022-08-19T01:26:45.775Z,17.29
2022-08-19T01:29:16.253Z,17.27
2022-08-19T01:31:46.341Z,17.29
2022-08-19T01:34:15.857Z,17.29
2022-08-19T01:36:50.013Z,17.27
2022-08-19T01:39:25.890Z,17.23
2022-08-19T01:41:55.984Z,17.21
2022-08-19T01:44:25.887Z,17.19
2022-08-19T01:46:55.403Z,17.20
2022-08-19T01:49:28.335Z,17.18
2022-08-19T01:51:59.217Z,17.25
2022-08-19T01:54:30.691Z,17.20
2022-08-19T01:57:07.938Z,17.25
2022-08-19T01:59:37.883Z,17.21
2022-08-19T02:02:09.373Z,17.23
2022-08-19T02:04:40.227Z,17.24
2022-08-19T02:07:10.514Z,17.21
2022-08-19T02:09:41.341Z,17.20
2022-08-19T02:12:10.900Z,17.18
2022-08-19T02:14:40.362Z,17.19
2022-08-19T02:17:10.350Z,17.18
2022-08-19T02:19:40.976Z,17.14
2022-08-19T02:22:11.772Z,17.16
2022-08-19T02:24:42.677Z,17.19
2022-08-19T02:27:12.206Z,17.14
2022-08-19T02:29:41.897Z,17.17
2022-08-19T02:32:11.405Z,17.19
2022-08-19T02:34:41.049Z,17.26
2022-08-19T02:37:31.303Z,17.21
2022-08-19T02:40:12.262Z,17.22
2022-08-19T02:42:44.005Z,17.16
2022-08-19T02:45:14.245Z,17.17
2022-08-19T02:47:44.452Z,17.18
2022-08-19T02:50:14.596Z,17.21
2022-08-19T02:52:44.040Z,17.21
2022-08-19T02:55:14.951Z,17.19
2022-08-19T02:57:44.445Z,17.17
2022-08-19T03:00:15.296Z,17.16
2022-08-19T03:02:44.825Z,17.11
2022-08-19T03:05:14.554Z,17.13
2022-08-19T03:07:44.308Z,17.12
2022-08-19T03:10:15.385Z,17.15
2022-08-19T03:12:45.996Z,17.14
2022-08-19T03:15:16.436Z,17.16
2022-08-19T03:17:45.877Z,17.12
2022-08-19T03:20:15.453Z,17.13
2022-08-19T03:22:44.925Z,17.13
2022-08-19T03:25:16.832Z,17.18
2022-08-19T03:27:49.907Z,17.26
2022-08-19T03:30:20.492Z,17.23
2022-08-19T03:32:57.142Z,17.20
2022-08-19T03:35:27.205Z,17.18
2022-08-19T03:37:57.340Z,17.16
2022-08-19T03:40:30.720Z,17.17
2022-08-19T03:43:00.386Z,17.18
2022-08-19T03:45:30.529Z,17.14
2022-08-19T03:48:00.046Z,17.15
2022-08-19T03:50:29.653Z,17.13
2022-08-19T03:52:59.132Z,17.10
2022-08-19T03:55:30.135Z,17.08
2022-08-19T03:58:00.103Z,17.10
2022-08-19T04:00:29.549Z,17.05
2022-08-19T04:03:00.943Z,17.04
2022-08-19T04:05:30.983Z,17.03
2022-08-19T04:08:01.488Z,17.02
2022-08-19T04:10:32.465Z,17.05
2022-08-19T04:13:01.959Z,17.07
2022-08-19T04:15:34.365Z,17.09
2022-08-19T04:18:07.079Z,17.10
2022-08-19T04:20:46.326Z,17.11
2022-08-19T04:23:16.982Z,17.10
2022-08-19T04:25:47.845Z,17.12
2022-08-19T04:28:17.404Z,17.13
2022-08-19T04:30:52.153Z,17.15
2022-08-19T04:33:28.730Z,17.17
2022-08-19T04:35:59.131Z,17.16
2022-08-19T04:38:28.985Z,17.20
2022-08-19T04:41:17.398Z,17.20
2022-08-19T04:43:49.704Z,17.25
2022-08-19T04:46:39.493Z,17.23
2022-08-19T04:49:13.606Z,17.22
2022-08-19T04:51:48.163Z,17.26
2022-08-19T04:54:33.810Z,17.24
2022-08-19T04:57:11.548Z,17.22
2022-08-19T04:59:41.474Z,17.21
2022-08-19T05:02:11.836Z,17.19
2022-08-19T05:04:41.347Z,17.21
2022-08-19T05:07:11.311Z,17.20
2022-08-19T05:09:57.999Z,17.19
2022-08-19T05:12:30.641Z,17.24
2022-08-19T05:15:01.819Z,17.22
2022-08-19T05:17:36.292Z,17.23
2022-08-19T05:20:29.863Z,17.23
2022-08-19T05:22:59.378Z,17.26
2022-08-19T05:25:28.964Z,17.26
2022-08-19T05:27:59.808Z,17.25
2022-08-19T05:30:46.090Z,17.30
2022-08-19T05:33:16.695Z,17.29
2022-08-19T05:35:47.125Z,17.32
2022-08-19T05:38:16.834Z,17.34
2022-08-19T05:40:50.451Z,17.37
2022-08-19T05:43:21.400Z,17.40
2022-08-19T05:45:51.552Z,17.43
2022-08-19T05:48:21.486Z,17.48
2022-08-19T05:50:51.733Z,17.55
2022-08-19T05:53:21.764Z,17.59
2022-08-19T05:55:51.352Z,17.63
2022-08-19T05:58:23.237Z,17.64
2022-08-19T06:00:57.661Z,17.65
2022-08-19T06:03:28.189Z,17.61
2022-08-19T06:06:00.079Z,17.62
2022-08-19T06:08:34.501Z,17.63
2022-08-19T06:11:23.209Z,17.65
2022-08-19T06:13:59.741Z,17.66
2022-08-19T06:16:35.858Z,17.66
2022-08-19T06:19:10.931Z,17.66
2022-08-19T06:21:44.341Z,17.66
2022-08-19T06:24:18.912Z,17.65
2022-08-19T06:26:51.418Z,17.63
2022-08-19T06:29:27.580Z,17.63
2022-08-19T06:32:00.310Z,17.63
2022-08-19T06:34:32.120Z,17.60
2022-08-19T06:37:03.953Z,17.60
2022-08-19T06:39:40.188Z,17.60
2022-08-19T06:42:12.731Z,17.62
2022-08-19T06:44:48.899Z,17.62
2022-08-19T06:47:23.498Z,17.63
2022-08-19T06:50:01.263Z,17.66
2022-08-19T06:52:36.527Z,17.63
2022-08-19T06:55:16.653Z,17.66
2022-08-19T06:57:49.092Z,17.64
2022-08-19T07:00:20.303Z,17.66
2022-08-19T07:02:57.255Z,17.70
2022-08-19T07:05:28.970Z,17.69
2022-08-19T07:08:02.858Z,17.72
2022-08-19T07:10:35.990Z,17.74
2022-08-19T07:13:06.784Z,17.75
2022-08-19T07:15:39.904Z,17.81
2022-08-19T07:18:11.714Z,17.83
2022-08-19T07:20:43.930Z,17.89
2022-08-19T07:23:16.043Z,17.94
2022-08-19T07:25:53.147Z,18.00
2022-08-19T07:28:24.362Z,18.08
2022-08-19T07:30:56.175Z,18.18
2022-08-19T07:33:27.950Z,18.26
2022-08-19T07:35:57.663Z,18.33
2022-08-19T07:38:27.356Z,18.38
2022-08-19T07:40:56.927Z,18.42
2022-08-19T07:43:33.434Z,18.41
2022-08-19T07:46:06.346Z,18.40
2022-08-19T07:48:36.228Z,18.42
2022-08-19T07:51:10.419Z,18.39
2022-08-19T07:53:45.752Z,18.43
2022-08-19T07:56:16.382Z,18.42
2022-08-19T07:58:49.329Z,18.43
2022-08-19T08:01:26.076Z,18.46
2022-08-19T08:04:15.788Z,18.48
2022-08-19T08:07:03.529Z,18.49
2022-08-19T08:09:39.809Z,18.53
2022-08-19T08:12:33.660Z,18.53
2022-08-19T08:15:12.520Z,18.56
2022-08-19T08:17:49.214Z,18.57
2022-08-19T08:20:21.315Z,18.56
2022-08-19T08:23:08.612Z,18.54
2022-08-19T08:25:39.309Z,18.52
2022-08-19T08:28:11.344Z,18.51
2022-08-19T08:30:48.972Z,18.51
2022-08-19T08:33:32.980Z,18.47
2022-08-19T08:36:06.377Z,18.43
2022-08-19T08:38:41.261Z,18.40
2022-08-19T08:41:26.624Z,18.35
2022-08-19T08:43:58.007Z,18.34
2022-08-19T08:46:39.049Z,18.33
2022-08-19T08:49:36.140Z,18.29
2022-08-19T08:52:13.385Z,18.29
2022-08-19T08:54:54.989Z,18.23
2022-08-19T08:57:36.978Z,18.24
2022-08-19T09:00:21.892Z,18.19
2022-08-19T09:02:51.734Z,18.14
2022-08-19T09:05:25.792Z,18.07
2022-08-19T09:08:07.763Z,18.02
2022-08-19T09:10:44.657Z,17.99
2022-08-19T09:13:37.251Z,17.98
2022-08-19T09:16:13.952Z,17.98
2022-08-19T09:18:47.922Z,17.96
2022-08-19T09:21:20.906Z,17.96
2022-08-19T09:23:52.449Z,17.93
2022-08-19T09:26:25.463Z,17.94
2022-08-19T09:29:15.410Z,17.90
2022-08-19T09:31:47.254Z,17.88
2022-08-19T09:34:21.169Z,17.87
2022-08-19T09:36:54.541Z,17.84
2022-08-19T09:39:24.446Z,17.89
2022-08-19T09:41:54.647Z,17.83
2022-08-19T09:44:27.660Z,17.82
2022-08-19T09:46:57.182Z,17.81
2022-08-19T09:49:26.652Z,17.77
2022-08-19T09:51:57.948Z,17.80
2022-08-19T09:54:28.542Z,17.82
2022-08-19T09:57:01.183Z,17.87
2022-08-19T09:59:34.193Z,17.88
2022-08-19T10:02:10.821Z,17.85
2022-08-19T10:04:58.444Z,17.82
2022-08-19T10:07:36.370Z,17.81
2022-08-19T10:10:10.211Z,17.85
2022-08-19T10:12:40.332Z,17.95
2022-08-19T10:15:13.050Z,17.99
2022-08-19T10:17:48.037Z,18.07
2022-08-19T10:20:24.522Z,18.16
2022-08-19T10:22:55.499Z,18.15
2022-08-19T10:25:25.013Z,18.13
2022-08-19T10:27:56.050Z,18.20
2022-08-19T10:30:25.800Z,18.29
2022-08-19T10:32:55.340Z,18.37
2022-08-19T10:35:27.488Z,18.39
2022-08-19T10:38:00.288Z,18.44
2022-08-19T10:40:31.786Z,18.44
2022-08-19T10:43:01.340Z,18.47
2022-08-19T10:45:30.813Z,18.49
2022-08-19T10:48:00.318Z,18.55
2022-08-19T10:50:47.606Z,18.49
2022-08-19T10:53:18.879Z,18.61
2022-08-19T10:56:07.066Z,18.56
2022-08-19T10:58:36.581Z,18.60
2022-08-19T11:01:06.582Z,18.64
2022-08-19T11:03:36.056Z,18.63
2022-08-19T11:06:33.390Z,18.69
2022-08-19T11:09:05.586Z,18.74
2022-08-19T11:11:42.284Z,18.68
2022-08-19T11:14:19.153Z,18.66
2022-08-19T11:16:50.138Z,18.59
2022-08-19T11:19:20.831Z,18.60
2022-08-19T11:21:51.349Z,18.62
2022-08-19T11:24:28.384Z,18.64
2022-08-19T11:27:06.161Z,18.63
2022-08-19T11:29:36.297Z,18.67
2022-08-19T11:32:10.880Z,18.72
2022-08-19T11:34:40.989Z,18.78
2022-08-19T11:37:10.627Z,18.84
2022-08-19T11:39:41.448Z,18.96
2022-08-19T11:42:29.030Z,19.02
2022-08-19T11:44:58.877Z,19.11
2022-08-19T11:47:28.344Z,19.21
2022-08-19T11:49:58.094Z,19.21
2022-08-19T11:52:27.740Z,19.24
2022-08-19T11:54:58.565Z,19.18
2022-08-19T11:57:28.164Z,19.21
2022-08-19T11:59:57.636Z,19.27
2022-08-19T12:02:27.340Z,19.31
2022-08-19T12:04:56.761Z,19.32
2022-08-19T12:07:26.615Z,19.29
2022-08-19T12:09:57.841Z,19.28
2022-08-19T12:12:27.697Z,19.35
2022-08-19T12:14:59.358Z,19.31
2022-08-19T12:17:29.687Z,19.40
2022-08-19T12:19:59.225Z,19.36
2022-08-19T12:22:29.135Z,19.39
2022-08-19T12:24:59.936Z,19.45
2022-08-19T12:27:34.692Z,19.56
2022-08-19T12:30:14.208Z,19.61
2022-08-19T12:32:43.680Z,19.67
2022-08-19T12:35:13.271Z,19.54
2022-08-19T12:37:45.321Z,19.54
2022-08-19T12:40:27.883Z,19.59
2022-08-19T12:42:57.408Z,19.56
2022-08-19T12:45:26.903Z,19.56
2022-08-19T12:47:56.638Z,19.58
2022-08-19T12:50:26.470Z,19.61
2022-08-19T12:52:56.067Z,19.57
2022-08-19T12:55:29.133Z,19.62
2022-08-19T12:57:58.625Z,19.64
2022-08-19T13:00:28.179Z,19.60
2022-08-19T13:02:58.477Z,19.52
2022-08-19T13:05:32.848Z,19.46
2022-08-19T13:08:02.871Z,19.41
2022-08-19T13:10:37.549Z,19.31
2022-08-19T13:13:11.572Z,19.18
2022-08-19T13:15:45.535Z,19.10
2022-08-19T13:18:16.816Z,18.94
2022-08-19T13:20:52.929Z,18.91
2022-08-19T13:23:22.640Z,18.92
2022-08-19T13:25:59.942Z,18.96
2022-08-19T13:28:49.935Z,18.97
2022-08-19T13:31:39.247Z,18.93
2022-08-19T13:34:09.622Z,18.92
2022-08-19T13:36:40.263Z,18.96
2022-08-19T13:39:11.007Z,18.92
2022-08-19T13:41:49.086Z,19.02
2022-08-19T13:44:20.789Z,19.15
2022-08-19T13:46:54.324Z,19.34
2022-08-19T13:49:24.184Z,19.45
2022-08-19T13:51:53.663Z,19.62
2022-08-19T13:54:23.165Z,19.75
2022-08-19T13:56:54.043Z,19.80
2022-08-19T13:59:23.525Z,19.85
2022-08-19T14:01:52.972Z,19.96
2022-08-19T14:04:22.528Z,19.95
2022-08-19T14:06:51.999Z,19.86
2022-08-19T14:09:21.439Z,19.84
2022-08-19T14:11:51.768Z,19.83
2022-08-19T14:14:22.596Z,19.82
2022-08-19T14:16:52.816Z,19.78
2022-08-19T14:19:22.289Z,19.66
2022-08-19T14:21:53.011Z,19.68
2022-08-19T14:24:22.404Z,19.74
2022-08-19T14:26:52.135Z,19.80
2022-08-19T14:29:22.964Z,19.82
2022-08-19T14:31:52.491Z,19.84
2022-08-19T14:34:23.092Z,19.84
2022-08-19T14:36:52.596Z,19.84
2022-08-19T14:39:22.213Z,19.78
2022-08-19T14:41:51.718Z,19.80
2022-08-19T14:44:23.640Z,19.74
2022-08-19T14:46:53.579Z,19.63
2022-08-19T14:49:29.744Z,19.68
2022-08-19T14:52:06.005Z,19.67
2022-08-19T14:54:35.560Z,19.66
2022-08-19T14:57:05.581Z,19.59
2022-08-19T14:59:37.964Z,19.54
2022-08-19T15:02:33.283Z,19.43
2022-08-19T15:04:58.299Z,19.34
2022-08-19T15:07:29.676Z,19.21
2022-08-19T15:09:59.848Z,19.14
2022-08-19T15:12:29.316Z,19.04
2022-08-19T15:15:00.215Z,18.93
2022-08-19T15:17:43.581Z,18.85
2022-08-19T15:20:19.625Z,18.78
2022-08-19T15:22:49.381Z,18.72
2022-08-19T15:25:21.243Z,18.66
2022-08-19T15:27:51.146Z,18.57
2022-08-19T15:30:27.970Z,18.43
2022-08-19T15:32:59.847Z,18.33
2022-08-19T15:35:30.146Z,18.27
2022-08-19T15:37:59.734Z,18.15
2022-08-19T15:40:29.967Z,18.05
2022-08-19T15:42:59.814Z,17.98
2022-08-19T15:45:32.716Z,18.01
2022-08-19T15:48:04.518Z,17.88
2022-08-19T15:50:34.280Z,17.83
2022-08-19T15:53:07.899Z,17.78
2022-08-19T15:55:46.036Z,17.80
2022-08-19T15:58:34.334Z,17.78
2022-08-19T16:01:27.379Z,17.79
2022-08-19T16:04:16.316Z,17.77
2022-08-19T16:06:49.827Z,17.77
2022-08-19T16:09:27.463Z,17.75
2022-08-19T16:12:01.892Z,17.70
2022-08-19T16:14:37.992Z,17.69
2022-08-19T16:17:11.527Z,17.69
2022-08-19T16:19:41.054Z,17.69
2022-08-19T16:22:10.810Z,17.66
2022-08-19T16:24:40.336Z,17.67
2022-08-19T16:27:10.050Z,17.64
2022-08-19T16:29:39.700Z,17.63
2022-08-19T16:32:12.837Z,17.60
2022-08-19T16:34:43.420Z,17.58
2022-08-19T16:37:13.307Z,17.56
2022-08-19T16:39:43.655Z,17.59
2022-08-19T16:42:14.582Z,17.64
2022-08-19T16:44:47.220Z,17.57
2022-08-19T16:47:18.102Z,17.57
2022-08-19T16:49:54.008Z,17.53
2022-08-19T16:52:26.257Z,17.58
2022-08-19T16:54:56.014Z,17.55
2022-08-19T16:57:25.775Z,17.53
2022-08-19T16:59:55.372Z,17.51
2022-08-19T17:02:29.675Z,17.51
2022-08-19T17:05:00.881Z,17.49
2022-08-19T17:07:32.273Z,17.52
2022-08-19T17:10:05.162Z,17.54
2022-08-19T17:12:35.014Z,17.57
2022-08-19T17:15:08.164Z,17.53
2022-08-19T17:17:39.046Z,17.48
2022-08-19T17:20:10.107Z,17.45
2022-08-19T17:23:14.134Z,17.42
2022-08-19T17:25:44.572Z,17.38
2022-08-19T17:28:20.757Z,17.37
2022-08-19T17:30:50.338Z,17.34
2022-08-19T17:33:21.662Z,17.32
2022-08-19T17:35:51.302Z,17.29
2022-08-19T17:38:24.488Z,17.29
2022-08-19T17:41:01.162Z,17.27
2022-08-19T17:43:32.343Z,17.25
2022-08-19T17:46:04.240Z,17.26
2022-08-19T17:48:38.823Z,17.27
2022-08-19T17:51:17.410Z,17.27
2022-08-19T17:53:53.277Z,17.24
2022-08-19T17:56:23.851Z,17.23
2022-08-19T17:58:59.798Z,17.23
2022-08-19T18:01:51.834Z,17.21
2022-08-19T18:04:24.808Z,17.18
2022-08-19T18:06:55.903Z,17.23
2022-08-19T18:09:38.585Z,17.18
2022-08-19T18:12:14.072Z,17.11
2022-08-19T18:14:44.304Z,17.05
2022-08-19T18:17:19.014Z,17.01
2022-08-19T18:19:50.006Z,16.98
2022-08-19T18:22:28.404Z,16.91
2022-08-19T18:24:59.734Z,16.88
2022-08-19T18:27:29.598Z,16.90
2022-08-19T18:30:00.239Z,16.89
2022-08-19T18:32:33.613Z,16.83
2022-08-19T18:35:11.063Z,16.82
2022-08-19T18:37:41.474Z,16.82
2022-08-19T18:40:34.886Z,16.84
2022-08-19T18:43:30.926Z,16.84
2022-08-19T18:46:17.944Z,16.86
2022-08-19T18:49:05.269Z,16.83
2022-08-19T18:51:36.583Z,16.80
2022-08-19T18:54:06.344Z,16.92
2022-08-19T18:56:37.639Z,16.88
2022-08-19T18:59:07.324Z,16.81
2022-08-19T19:01:40.640Z,16.73
2022-08-19T19:04:11.481Z,16.71
2022-08-19T19:06:43.644Z,16.66
2022-08-19T19:09:19.681Z,16.63
2022-08-19T19:11:55.393Z,16.62
2022-08-19T19:14:48.055Z,16.54
2022-08-19T19:17:25.661Z,16.51
2022-08-19T19:19:55.429Z,16.46
2022-08-19T19:22:26.743Z,16.43
2022-08-19T19:24:56.432Z,16.38
2022-08-19T19:27:26.263Z,16.33
2022-08-19T19:29:55.758Z,16.30
2022-08-19T19:32:36.941Z,16.28
2022-08-19T19:35:10.581Z,16.24
2022-08-19T19:37:43.306Z,16.24
2022-08-19T19:40:13.145Z,16.23
2022-08-19T19:42:42.586Z,16.22
2022-08-19T19:45:12.189Z,16.27
2022-08-19T19:47:42.573Z,16.24
2022-08-19T19:50:15.338Z,16.20
2022-08-19T19:52:48.116Z,16.22
2022-08-19T19:55:18.967Z,16.24
2022-08-19T19:57:49.890Z,16.20
2022-08-19T20:00:20.784Z,16.24
2022-08-19T20:02:51.228Z,16.22
2022-08-19T20:05:21.889Z,16.23
2022-08-19T20:08:13.141Z,16.26
2022-08-19T20:10:44.834Z,16.24
2022-08-19T20:13:15.432Z,16.22
2022-08-19T20:15:45.575Z,16.18
2022-08-19T20:18:15.304Z,16.18
2022-08-19T20:20:46.390Z,16.18
2022-08-19T20:23:17.370Z,16.19
2022-08-19T20:25:47.090Z,16.19
2022-08-19T20:28:17.311Z,16.21
2022-08-19T20:30:48.222Z,16.20
2022-08-19T20:33:19.187Z,16.21
2022-08-19T20:35:48.715Z,16.31
2022-08-19T20:38:19.534Z,16.32
2022-08-19T20:40:49.069Z,16.31
2022-08-19T20:43:18.516Z,16.27
2022-08-19T20:45:48.052Z,16.25
2022-08-19T20:48:17.597Z,16.31
2022-08-19T20:50:47.615Z,16.28
2022-08-19T20:53:23.331Z,16.28
2022-08-19T20:55:52.806Z,16.29
2022-08-19T20:58:27.966Z,16.28
2022-08-19T21:01:02.980Z,16.26
2022-08-19T21:03:36.544Z,16.30
2022-08-19T21:06:15.265Z,16.31
2022-08-19T21:08:46.948Z,16.32
2022-08-19T21:11:20.615Z,16.35
2022-08-19T21:13:50.245Z,16.36
2022-08-19T21:16:19.757Z,16.38
2022-08-19T21:18:49.336Z,16.34
2022-08-19T21:21:18.873Z,16.36
2022-08-19T21:23:49.795Z,16.36
2022-08-19T21:26:19.320Z,16.36
2022-08-19T21:28:48.923Z,16.37
2022-08-19T21:31:18.411Z,16.37
2022-08-19T21:33:47.925Z,16.37
2022-08-19T21:36:17.560Z,16.36
2022-08-19T21:38:47.144Z,16.34
2022-08-19T21:41:18.073Z,16.38
2022-08-19T21:43:47.573Z,16.39
2022-08-19T21:46:17.288Z,16.36
2022-08-19T21:48:46.802Z,16.35
2022-08-19T21:51:16.781Z,16.33
2022-08-19T21:53:46.408Z,16.31
2022-08-19T21:56:19.890Z,16.29
2022-08-19T21:58:49.409Z,16.26
2022-08-19T22:01:19.102Z,16.29
2022-08-19T22:03:48.595Z,16.31
2022-08-19T22:06:19.807Z,16.34
2022-08-19T22:08:49.321Z,16.36
2022-08-19T22:11:20.237Z,16.38
2022-08-19T22:13:53.812Z,16.35
2022-08-19T22:16:26.822Z,16.34
2022-08-19T22:18:56.300Z,16.35
2022-08-19T22:21:40.374Z,16.32
2022-08-19T22:24:11.100Z,16.32
2022-08-19T22:26:41.931Z,16.30
2022-08-19T22:29:11.758Z,16.27
2022-08-19T22:31:45.681Z,16.29
2022-08-19T22:34:24.736Z,16.30
2022-08-19T22:36:54.273Z,16.34
2022-08-19T22:39:23.814Z,16.32
2022-08-19T22:41:55.085Z,16.29
2022-08-19T22:44:24.596Z,16.36
2022-08-19T22:46:54.097Z,16.38
2022-08-19T22:49:23.604Z,16.35
2022-08-19T22:52:10.617Z,16.36
2022-08-19T22:54:40.187Z,16.41
2022-08-19T22:57:11.299Z,16.35
2022-08-19T22:59:41.397Z,16.34
2022-08-19T23:02:11.845Z,16.34
2022-08-19T23:04:41.334Z,16.34
2022-08-19T23:07:10.808Z,16.38
2022-08-19T23:09:40.919Z,16.39
2022-08-19T23:12:17.575Z,16.38
2022-08-19T23:14:47.124Z,16.35
2022-08-19T23:17:16.637Z,16.42
2022-08-19T23:19:50.628Z,16.40
2022-08-19T23:22:20.691Z,16.42
2022-08-19T23:24:55.970Z,16.36
2022-08-19T23:27:44.606Z,16.46
2022-08-19T23:30:29.392Z,16.46
2022-08-19T23:33:07.669Z,16.47
2022-08-19T23:35:40.677Z,16.45
2022-08-19T23:38:11.308Z,16.47
2022-08-19T23:40:41.464Z,16.54
2022-08-19T23:43:17.401Z,16.53
2022-08-19T23:45:57.382Z,16.54
2022-08-19T23:48:28.522Z,16.56
2022-08-19T23:50:58.627Z,16.55
2022-08-19T23:53:28.704Z,16.50
2022-08-19T23:55:58.622Z,16.49
2022-08-19T23:58:32.894Z,16.50
